createdAt,value
2022-08-27T00:00:41.743Z,3.20
2022-08-27T00:01:38.412Z,3.83
2022-08-27T00:02:36.099Z,3.00
2022-08-27T00:03:32.709Z,3.13
2022-08-27T00:04:30.121Z,3.08
2022-08-27T00:05:26.859Z,3.17
2022-08-27T00:06:25.441Z,3.15
2022-08-27T00:07:22.223Z,2.92
2022-08-27T00:08:18.961Z,3.88
2022-08-27T00:09:15.775Z,3.80
2022-08-27T00:10:19.373Z,3.72
2022-08-27T00:11:17.454Z,3.53
2022-08-27T00:12:14.256Z,3.50
2022-08-27T00:13:10.920Z,3.65
2022-08-27T00:14:07.628Z,3.00
2022-08-27T00:15:06.229Z,3.10
2022-08-27T00:16:07.003Z,3.25
2022-08-27T00:17:05.561Z,3.40
2022-08-27T00:18:02.303Z,3.67
2022-08-27T00:18:59.106Z,3.20
2022-08-27T00:19:55.821Z,3.70
2022-08-27T00:20:53.095Z,3.95
2022-08-27T00:21:50.196Z,4.30
2022-08-27T00:22:46.997Z,3.92
2022-08-27T00:23:43.884Z,3.90
2022-08-27T00:24:48.861Z,4.32
2022-08-27T00:25:46.178Z,3.65
2022-08-27T00:26:43.547Z,4.20
2022-08-27T00:27:40.674Z,3.47
2022-08-27T00:28:37.886Z,3.45
2022-08-27T00:29:34.516Z,3.60
2022-08-27T00:30:31.175Z,3.38
2022-08-27T00:31:27.901Z,3.63
2022-08-27T00:32:25.976Z,3.80
2022-08-27T00:33:23.461Z,3.90
2022-08-27T00:34:21.734Z,4.50
2022-08-27T00:35:18.801Z,4.72
2022-08-27T00:36:15.563Z,4.72
2022-08-27T00:37:12.838Z,4.10
2022-08-27T00:38:09.631Z,4.00
2022-08-27T00:39:06.459Z,4.32
2022-08-27T00:40:05.384Z,4.28
2022-08-27T00:41:03.971Z,4.53
2022-08-27T00:42:03.815Z,4.07
2022-08-27T00:43:04.164Z,3.20
2022-08-27T00:44:02.024Z,3.30
2022-08-27T00:44:59.773Z,4.35
2022-08-27T00:46:04.942Z,4.50
2022-08-27T00:47:07.068Z,3.55
2022-08-27T00:48:04.886Z,3.70
2022-08-27T00:49:32.891Z,3.22
2022-08-27T00:50:44.105Z,3.35
2022-08-27T00:51:41.159Z,3.45
2022-08-27T00:52:54.634Z,3.25
2022-08-27T00:53:53.764Z,3.00
2022-08-27T00:54:58.509Z,4.10
2022-08-27T00:56:12.159Z,3.38
2022-08-27T00:57:08.948Z,3.30
2022-08-27T00:58:15.129Z,3.30
2022-08-27T00:59:15.179Z,2.92
2022-08-27T01:00:16.260Z,2.83
2022-08-27T01:01:17.228Z,3.95
2022-08-27T01:02:20.346Z,3.58
2022-08-27T01:03:17.167Z,3.67
2022-08-27T01:04:13.833Z,3.42
2022-08-27T01:05:15.275Z,3.45
2022-08-27T01:06:16.118Z,3.30
2022-08-27T01:07:14.539Z,3.22
2022-08-27T01:08:17.492Z,3.70
2022-08-27T01:09:17.313Z,3.70
2022-08-27T01:10:17.927Z,3.20
2022-08-27T01:11:14.745Z,3.40
2022-08-27T01:12:11.590Z,3.40
2022-08-27T01:13:12.590Z,3.30
2022-08-27T01:14:09.251Z,2.80
2022-08-27T01:15:12.012Z,3.67
2022-08-27T01:16:16.099Z,3.30
2022-08-27T01:17:15.037Z,3.25
2022-08-27T01:18:13.753Z,3.80
2022-08-27T01:19:20.252Z,3.60
2022-08-27T01:20:21.519Z,3.30
2022-08-27T01:21:31.742Z,3.53
2022-08-27T01:22:33.968Z,3.70
2022-08-27T01:23:45.461Z,3.97
2022-08-27T01:24:52.637Z,3.40
2022-08-27T01:25:50.264Z,3.50
2022-08-27T01:26:47.529Z,3.65
2022-08-27T01:27:45.445Z,4.05
2022-08-27T01:28:44.147Z,3.70
2022-08-27T01:29:42.509Z,3.28
2022-08-27T01:30:40.433Z,3.47
2022-08-27T01:31:37.463Z,3.63
2022-08-27T01:32:36.191Z,4.15
2022-08-27T01:33:33.075Z,3.45
2022-08-27T01:34:29.813Z,4.25
2022-08-27T01:35:26.777Z,3.60
2022-08-27T01:36:23.484Z,3.90
2022-08-27T01:37:23.910Z,3.70
2022-08-27T01:38:30.123Z,4.00
2022-08-27T01:39:27.852Z,3.97
2022-08-27T01:40:24.796Z,4.18
2022-08-27T01:41:22.483Z,3.65
2022-08-27T01:42:24.942Z,4.75
2022-08-27T01:43:21.676Z,4.53
2022-08-27T01:44:20.838Z,5.28
2022-08-27T01:45:26.260Z,4.90
2022-08-27T01:46:25.384Z,4.45
2022-08-27T01:47:24.788Z,4.65
2022-08-27T01:48:27.584Z,3.92
2022-08-27T01:49:24.213Z,3.53
2022-08-27T01:50:27.597Z,4.10
2022-08-27T01:51:24.324Z,4.85
2022-08-27T01:52:23.347Z,4.65
2022-08-27T01:53:25.268Z,4.80
2022-08-27T01:54:22.031Z,4.30
2022-08-27T01:55:21.692Z,4.03
2022-08-27T01:56:18.509Z,4.43
2022-08-27T01:57:15.351Z,4.65
2022-08-27T01:58:15.038Z,5.00
2022-08-27T01:59:12.252Z,4.63
2022-08-27T02:00:16.523Z,4.70
2022-08-27T02:01:16.888Z,4.82
2022-08-27T02:02:15.812Z,4.50
2022-08-27T02:03:13.059Z,3.97
2022-08-27T02:04:10.518Z,3.78
2022-08-27T02:05:07.673Z,3.80
2022-08-27T02:06:07.799Z,3.95
2022-08-27T02:07:04.976Z,3.55
2022-08-27T02:08:02.061Z,3.97
2022-08-27T02:09:00.599Z,4.05
2022-08-27T02:09:57.223Z,4.22
2022-08-27T02:10:53.911Z,3.58
2022-08-27T02:11:50.641Z,3.42
2022-08-27T02:12:47.464Z,3.53
2022-08-27T02:13:44.209Z,4.80
2022-08-27T02:14:40.859Z,4.05
2022-08-27T02:15:37.552Z,4.63
2022-08-27T02:16:34.337Z,4.93
2022-08-27T02:17:38.669Z,3.80
2022-08-27T02:18:37.423Z,4.40
2022-08-27T02:19:34.197Z,4.75
2022-08-27T02:20:31.486Z,5.35
2022-08-27T02:21:28.226Z,5.20
2022-08-27T02:22:24.939Z,5.50
2022-08-27T02:23:21.896Z,5.72
2022-08-27T02:24:18.614Z,5.57
2022-08-27T02:25:17.050Z,4.10
2022-08-27T02:26:14.018Z,3.72
2022-08-27T02:27:11.544Z,5.13
2022-08-27T02:28:09.480Z,4.30
2022-08-27T02:29:06.631Z,4.57
2022-08-27T02:30:04.577Z,3.78
2022-08-27T02:31:01.805Z,4.63
2022-08-27T02:31:58.504Z,4.15
2022-08-27T02:32:55.125Z,4.53
2022-08-27T02:33:52.654Z,4.22
2022-08-27T02:34:49.303Z,3.90
2022-08-27T02:35:45.987Z,4.57
2022-08-27T02:36:42.965Z,4.28
2022-08-27T02:37:39.658Z,3.70
2022-08-27T02:38:36.417Z,4.30
2022-08-27T02:39:34.340Z,4.63
2022-08-27T02:40:34.968Z,3.70
2022-08-27T02:41:31.869Z,4.10
2022-08-27T02:42:28.512Z,4.07
2022-08-27T02:43:25.680Z,3.70
2022-08-27T02:44:24.831Z,3.80
2022-08-27T02:45:21.669Z,3.70
2022-08-27T02:46:18.463Z,4.32
2022-08-27T02:47:16.774Z,3.92
2022-08-27T02:48:13.651Z,4.43
2022-08-27T02:49:10.899Z,4.53
2022-08-27T02:50:08.940Z,3.60
2022-08-27T02:51:06.771Z,3.22
2022-08-27T02:52:03.964Z,3.97
2022-08-27T02:53:02.567Z,4.10
2022-08-27T02:54:00.004Z,3.30
2022-08-27T02:54:57.553Z,4.07
2022-08-27T02:55:55.298Z,3.92
2022-08-27T02:56:53.821Z,3.75
2022-08-27T02:57:50.446Z,4.32
2022-08-27T02:58:47.136Z,4.00
2022-08-27T02:59:45.668Z,4.05
2022-08-27T03:00:43.475Z,4.60
2022-08-27T03:01:40.183Z,3.95
2022-08-27T03:02:37.083Z,4.30
2022-08-27T03:03:33.901Z,4.15
2022-08-27T03:04:30.563Z,3.95
2022-08-27T03:05:27.259Z,3.50
2022-08-27T03:06:23.855Z,3.42
2022-08-27T03:07:23.543Z,3.83
2022-08-27T03:08:20.167Z,4.68
2022-08-27T03:09:16.983Z,3.80
2022-08-27T03:10:17.270Z,4.72
2022-08-27T03:11:13.944Z,4.03
2022-08-27T03:12:10.739Z,5.15
2022-08-27T03:13:07.340Z,4.95
2022-08-27T03:14:04.002Z,4.63
2022-08-27T03:15:00.676Z,4.70
2022-08-27T03:15:57.361Z,5.03
2022-08-27T03:16:54.872Z,5.90
2022-08-27T03:18:10.198Z,5.30
2022-08-27T03:19:09.079Z,5.70
2022-08-27T03:20:07.419Z,3.80
2022-08-27T03:21:04.179Z,5.60
2022-08-27T03:22:00.793Z,3.97
2022-08-27T03:22:57.523Z,4.57
2022-08-27T03:23:54.598Z,4.43
2022-08-27T03:24:51.272Z,4.47
2022-08-27T03:25:57.080Z,4.00
2022-08-27T03:26:54.210Z,4.40
2022-08-27T03:27:50.934Z,4.78
2022-08-27T03:28:47.699Z,3.92
2022-08-27T03:29:44.361Z,3.55
2022-08-27T03:30:42.510Z,4.35
2022-08-27T03:31:39.267Z,4.43
2022-08-27T03:32:36.335Z,4.43
2022-08-27T03:33:35.897Z,5.53
2022-08-27T03:34:33.165Z,4.45
2022-08-27T03:35:30.372Z,4.43
2022-08-27T03:36:30.321Z,5.03
2022-08-27T03:37:27.266Z,4.68
2022-08-27T03:38:24.448Z,3.95
2022-08-27T03:39:21.054Z,4.45
2022-08-27T03:40:17.832Z,4.50
2022-08-27T03:41:16.085Z,5.40
2022-08-27T03:42:12.818Z,3.67
2022-08-27T03:43:11.920Z,4.40
2022-08-27T03:44:08.502Z,3.85
2022-08-27T03:45:07.302Z,4.00
2022-08-27T03:46:04.029Z,5.07
2022-08-27T03:47:00.901Z,4.30
2022-08-27T03:47:57.708Z,4.25
2022-08-27T03:48:57.348Z,4.80
2022-08-27T03:49:55.255Z,4.18
2022-08-27T03:50:51.919Z,4.20
2022-08-27T03:51:53.293Z,4.78
2022-08-27T03:52:50.084Z,4.57
2022-08-27T03:53:47.204Z,4.30
2022-08-27T03:54:43.852Z,4.25
2022-08-27T03:55:42.636Z,4.43
2022-08-27T03:56:40.683Z,4.90
2022-08-27T03:57:37.561Z,4.85
2022-08-27T03:58:36.206Z,4.68
2022-08-27T03:59:33.536Z,4.57
2022-08-27T04:00:30.447Z,4.05
2022-08-27T04:01:27.140Z,4.65
2022-08-27T04:02:23.949Z,3.90
2022-08-27T04:03:20.681Z,4.03
2022-08-27T04:04:17.401Z,4.32
2022-08-27T04:05:14.593Z,4.10
2022-08-27T04:06:11.281Z,4.57
2022-08-27T04:07:10.555Z,3.70
2022-08-27T04:08:07.271Z,4.13
2022-08-27T04:09:04.627Z,3.85
2022-08-27T04:10:01.256Z,4.70
2022-08-27T04:10:57.937Z,3.80
2022-08-27T04:11:54.564Z,4.13
2022-08-27T04:12:51.280Z,4.40
2022-08-27T04:13:51.120Z,4.32
2022-08-27T04:14:47.809Z,3.95
2022-08-27T04:15:46.170Z,4.68
2022-08-27T04:16:43.634Z,4.00
2022-08-27T04:17:40.626Z,4.75
2022-08-27T04:18:37.488Z,5.03
2022-08-27T04:19:35.177Z,4.38
2022-08-27T04:20:35.511Z,3.85
2022-08-27T04:21:33.815Z,4.40
2022-08-27T04:22:30.450Z,4.80
2022-08-27T04:23:27.099Z,4.32
2022-08-27T04:24:23.716Z,4.35
2022-08-27T04:25:20.716Z,4.60
2022-08-27T04:26:17.795Z,4.97
2022-08-27T04:27:16.139Z,4.82
2022-08-27T04:28:14.872Z,5.10
2022-08-27T04:29:11.553Z,4.35
2022-08-27T04:30:10.613Z,4.47
2022-08-27T04:31:16.317Z,4.00
2022-08-27T04:32:13.779Z,4.30
2022-08-27T04:33:11.625Z,4.72
2022-08-27T04:34:08.329Z,4.40
2022-08-27T04:35:05.663Z,4.57
2022-08-27T04:36:07.433Z,4.03
2022-08-27T04:37:05.488Z,4.80
2022-08-27T04:38:02.921Z,4.53
2022-08-27T04:38:59.517Z,4.65
2022-08-27T04:39:56.172Z,4.88
2022-08-27T04:41:11.689Z,3.83
2022-08-27T04:42:08.398Z,5.30
2022-08-27T04:43:05.064Z,4.00
2022-08-27T04:44:08.109Z,4.25
2022-08-27T04:45:05.530Z,4.65
2022-08-27T04:46:02.311Z,4.25
2022-08-27T04:47:01.602Z,3.72
2022-08-27T04:47:58.227Z,4.20
2022-08-27T04:48:58.141Z,4.32
2022-08-27T04:49:54.782Z,4.32
2022-08-27T04:50:52.186Z,4.43
2022-08-27T04:51:49.086Z,4.15
2022-08-27T04:52:45.983Z,4.07
2022-08-27T04:53:44.968Z,4.00
2022-08-27T04:54:42.361Z,4.47
2022-08-27T04:55:47.074Z,4.28
2022-08-27T04:56:43.882Z,3.85
2022-08-27T04:57:40.478Z,4.20
2022-08-27T04:58:37.127Z,4.43
2022-08-27T04:59:34.951Z,5.00
2022-08-27T05:00:31.691Z,4.38
2022-08-27T05:01:30.173Z,4.15
2022-08-27T05:02:26.831Z,4.32
2022-08-27T05:03:24.304Z,4.35
2022-08-27T05:04:21.016Z,3.72
2022-08-27T05:05:17.894Z,4.10
2022-08-27T05:06:15.368Z,4.38
2022-08-27T05:07:12.108Z,3.85
2022-08-27T05:08:10.751Z,3.58
2022-08-27T05:09:07.572Z,3.40
2022-08-27T05:10:04.380Z,3.78
2022-08-27T05:11:01.918Z,3.50
2022-08-27T05:11:58.731Z,3.80
2022-08-27T05:12:59.402Z,3.25
2022-08-27T05:13:56.918Z,4.15
2022-08-27T05:14:55.027Z,3.42
2022-08-27T05:15:59.701Z,4.15
2022-08-27T05:16:58.146Z,3.47
2022-08-27T05:17:54.795Z,4.05
2022-08-27T05:18:52.845Z,3.40
2022-08-27T05:19:49.524Z,4.05
2022-08-27T05:20:48.684Z,4.22
2022-08-27T05:21:50.509Z,4.30
2022-08-27T05:22:47.214Z,4.10
2022-08-27T05:23:44.297Z,3.90
2022-08-27T05:24:40.930Z,4.10
2022-08-27T05:25:42.582Z,3.42
2022-08-27T05:26:39.272Z,4.10
2022-08-27T05:27:36.417Z,3.90
2022-08-27T05:28:33.080Z,3.83
2022-08-27T05:29:30.301Z,3.83
2022-08-27T05:30:27.000Z,3.47
2022-08-27T05:31:23.790Z,3.63
2022-08-27T05:32:20.454Z,4.13
2022-08-27T05:33:20.768Z,3.78
2022-08-27T05:34:21.199Z,3.88
2022-08-27T05:35:22.136Z,4.15
2022-08-27T05:36:25.708Z,3.92
2022-08-27T05:37:22.351Z,3.88
2022-08-27T05:38:21.051Z,4.03
2022-08-27T05:39:17.730Z,3.80
2022-08-27T05:40:14.441Z,4.13
2022-08-27T05:41:15.352Z,3.85
2022-08-27T05:42:12.581Z,4.07
2022-08-27T05:43:10.382Z,4.10
2022-08-27T05:44:39.594Z,4.03
2022-08-27T05:45:29.158Z,3.72
2022-08-27T05:46:27.290Z,3.47
2022-08-27T05:47:24.681Z,3.88
2022-08-27T05:48:21.355Z,4.38
2022-08-27T05:49:18.530Z,3.45
2022-08-27T05:50:15.386Z,4.15
2022-08-27T05:51:16.226Z,3.85
2022-08-27T05:52:22.414Z,4.25
2022-08-27T05:53:19.085Z,4.78
2022-08-27T05:54:19.630Z,4.80
2022-08-27T05:55:16.796Z,4.32
2022-08-27T05:56:19.348Z,5.85
2022-08-27T05:58:33.743Z,9.18
2022-08-27T05:59:48.858Z,10.38
2022-08-27T06:01:09.544Z,10.40
2022-08-27T06:02:07.963Z,10.55
2022-08-27T06:03:04.692Z,10.75
2022-08-27T06:04:01.796Z,11.20
2022-08-27T06:04:58.539Z,11.57
2022-08-27T06:06:07.940Z,11.02
2022-08-27T06:07:06.583Z,11.23
2022-08-27T06:08:03.526Z,11.73
2022-08-27T06:09:00.191Z,10.40
2022-08-27T06:09:58.903Z,11.50
2022-08-27T06:10:57.539Z,10.15
2022-08-27T06:11:55.583Z,10.07
2022-08-27T06:12:56.774Z,10.02
2022-08-27T06:13:53.686Z,10.98
2022-08-27T06:14:50.320Z,9.93
2022-08-27T06:15:47.112Z,9.30
2022-08-27T06:16:44.410Z,8.60
2022-08-27T06:17:41.063Z,8.25
2022-08-27T06:18:38.664Z,8.07
2022-08-27T06:19:36.536Z,7.88
2022-08-27T06:20:33.250Z,7.68
2022-08-27T06:21:29.962Z,8.00
2022-08-27T06:22:26.568Z,6.13
2022-08-27T06:23:28.181Z,6.72
2022-08-27T06:24:25.335Z,6.47
2022-08-27T06:25:21.998Z,6.95
2022-08-27T06:26:20.561Z,6.68
2022-08-27T06:27:19.208Z,6.85
2022-08-27T06:28:15.921Z,6.50
2022-08-27T06:29:13.812Z,5.35
2022-08-27T06:30:13.647Z,6.20
2022-08-27T06:31:16.958Z,5.53
2022-08-27T06:32:14.966Z,5.93
2022-08-27T06:33:11.614Z,6.15
2022-08-27T06:34:09.651Z,5.72
2022-08-27T06:35:06.515Z,5.10
2022-08-27T06:36:06.665Z,5.30
2022-08-27T06:37:03.515Z,4.72
2022-08-27T06:38:00.376Z,5.32
2022-08-27T06:38:58.123Z,4.90
2022-08-27T06:39:54.793Z,5.00
2022-08-27T06:40:51.512Z,5.65
2022-08-27T06:41:50.334Z,4.93
2022-08-27T06:42:47.633Z,4.90
2022-08-27T06:43:44.323Z,4.95
2022-08-27T06:44:41.847Z,4.53
2022-08-27T06:45:39.329Z,5.07
2022-08-27T06:46:37.167Z,5.22
2022-08-27T06:47:34.176Z,4.82
2022-08-27T06:48:34.373Z,4.60
2022-08-27T06:49:32.084Z,5.25
2022-08-27T06:50:28.794Z,4.45
2022-08-27T06:51:28.493Z,4.00
2022-08-27T06:52:25.165Z,5.10
2022-08-27T06:53:24.210Z,4.53
2022-08-27T06:54:21.488Z,4.80
2022-08-27T06:55:18.153Z,5.10
2022-08-27T06:56:17.005Z,4.50
2022-08-27T06:57:13.663Z,4.32
2022-08-27T06:58:10.857Z,4.32
2022-08-27T06:59:12.080Z,4.60
2022-08-27T07:00:10.088Z,4.45
2022-08-27T07:01:19.145Z,4.45
2022-08-27T07:02:15.913Z,4.07
2022-08-27T07:03:12.560Z,4.28
2022-08-27T07:04:12.395Z,4.28
2022-08-27T07:05:09.522Z,4.43
2022-08-27T07:06:07.697Z,3.80
2022-08-27T07:07:04.686Z,3.97
2022-08-27T07:08:02.057Z,3.38
2022-08-27T07:08:59.831Z,4.30
2022-08-27T07:09:56.980Z,4.30
2022-08-27T07:10:57.588Z,3.75
2022-08-27T07:11:54.821Z,4.50
2022-08-27T07:12:51.566Z,4.03
2022-08-27T07:13:49.102Z,4.10
2022-08-27T07:14:46.126Z,4.20
2022-08-27T07:15:43.167Z,3.60
2022-08-27T07:16:40.921Z,4.15
2022-08-27T07:17:37.853Z,3.58
2022-08-27T07:18:34.941Z,3.78
2022-08-27T07:19:32.314Z,4.13
2022-08-27T07:20:29.104Z,4.13
2022-08-27T07:21:26.782Z,3.80
2022-08-27T07:22:23.386Z,3.38
2022-08-27T07:23:20.420Z,3.58
2022-08-27T07:24:17.794Z,3.65
2022-08-27T07:25:21.327Z,3.63
2022-08-27T07:26:19.496Z,3.47
2022-08-27T07:27:16.170Z,3.40
2022-08-27T07:28:12.929Z,3.70
2022-08-27T07:29:12.920Z,3.33
2022-08-27T07:30:13.096Z,3.72
2022-08-27T07:31:12.931Z,3.72
2022-08-27T07:32:10.022Z,3.70
2022-08-27T07:33:06.704Z,3.28
2022-08-27T07:34:05.195Z,3.15
2022-08-27T07:35:01.855Z,3.40
2022-08-27T07:35:59.539Z,3.55
2022-08-27T07:36:56.244Z,4.05
2022-08-27T07:37:52.855Z,3.13
2022-08-27T07:39:00.681Z,3.45
2022-08-27T07:39:58.516Z,3.35
2022-08-27T07:40:55.485Z,3.70
2022-08-27T07:42:10.609Z,3.58
2022-08-27T07:43:27.683Z,3.45
2022-08-27T07:44:26.025Z,3.30
2022-08-27T07:45:23.005Z,3.33
2022-08-27T07:46:21.889Z,3.38
2022-08-27T07:47:18.633Z,3.67
2022-08-27T07:48:16.462Z,2.90
2022-08-27T07:49:13.988Z,3.47
2022-08-27T07:50:10.747Z,3.70
2022-08-27T07:51:17.672Z,3.30
2022-08-27T07:52:16.146Z,3.38
2022-08-27T07:53:12.742Z,3.78
2022-08-27T07:54:09.359Z,3.75
2022-08-27T07:55:06.568Z,3.35
2022-08-27T07:56:08.197Z,3.70
2022-08-27T07:57:04.969Z,4.03
2022-08-27T07:58:01.671Z,2.97
2022-08-27T07:58:59.234Z,3.65
2022-08-27T07:59:55.902Z,3.25
2022-08-27T08:00:55.512Z,3.38
2022-08-27T08:01:52.426Z,2.92
2022-08-27T08:02:49.678Z,3.70
2022-08-27T08:03:47.265Z,3.50
2022-08-27T08:04:43.966Z,2.88
2022-08-27T08:05:43.950Z,3.78
2022-08-27T08:06:40.858Z,3.55
2022-08-27T08:07:38.573Z,3.78
2022-08-27T08:08:36.585Z,3.72
2022-08-27T08:09:36.042Z,3.13
2022-08-27T08:10:35.633Z,3.70
2022-08-27T08:11:33.941Z,3.42
2022-08-27T08:12:31.709Z,3.08
2022-08-27T08:13:28.518Z,3.17
2022-08-27T08:14:25.221Z,3.92
2022-08-27T08:15:22.115Z,3.50
2022-08-27T08:16:18.762Z,3.47
2022-08-27T08:17:15.463Z,2.90
2022-08-27T08:18:12.953Z,2.85
2022-08-27T08:19:09.685Z,2.92
2022-08-27T08:20:21.832Z,2.97
2022-08-27T08:21:25.319Z,3.00
2022-08-27T08:22:21.954Z,3.03
2022-08-27T08:23:20.068Z,2.85
2022-08-27T08:24:18.346Z,3.20
2022-08-27T08:25:16.302Z,2.90
2022-08-27T08:26:13.312Z,3.53
2022-08-27T08:27:11.292Z,3.08
2022-08-27T08:28:08.736Z,2.95
2022-08-27T08:29:05.465Z,3.10
2022-08-27T08:30:02.696Z,3.25
2022-08-27T08:30:59.825Z,3.20
2022-08-27T08:31:56.589Z,3.38
2022-08-27T08:32:53.845Z,3.28
2022-08-27T08:33:50.655Z,3.30
2022-08-27T08:34:47.596Z,3.30
2022-08-27T08:35:44.242Z,3.38
2022-08-27T08:36:40.860Z,2.90
2022-08-27T08:37:37.993Z,3.00
2022-08-27T08:38:34.756Z,3.10
2022-08-27T08:39:31.449Z,3.40
2022-08-27T08:40:36.639Z,3.42
2022-08-27T08:41:43.471Z,3.30
2022-08-27T08:42:45.037Z,2.97
2022-08-27T08:43:51.627Z,2.95
2022-08-27T08:44:52.898Z,3.95
2022-08-27T08:45:51.403Z,3.47
2022-08-27T08:46:59.848Z,3.55
2022-08-27T08:48:04.946Z,3.30
2022-08-27T08:49:14.467Z,3.28
2022-08-27T08:50:19.975Z,3.20
2022-08-27T08:51:25.536Z,3.05
2022-08-27T08:52:31.276Z,2.60
2022-08-27T08:53:51.368Z,3.08
2022-08-27T08:54:49.940Z,3.22
2022-08-27T08:56:01.514Z,3.30
2022-08-27T08:57:13.007Z,3.75
2022-08-27T08:58:35.464Z,2.80
2022-08-27T08:59:38.704Z,3.72
2022-08-27T09:00:37.446Z,2.88
2022-08-27T09:01:35.304Z,3.55
2022-08-27T09:02:32.615Z,3.08
2022-08-27T09:03:33.399Z,3.33
2022-08-27T09:04:30.651Z,3.17
2022-08-27T09:05:27.950Z,3.10
2022-08-27T09:06:36.654Z,3.10
2022-08-27T09:07:51.638Z,3.03
2022-08-27T09:08:49.241Z,3.08
2022-08-27T09:10:01.212Z,3.33
2022-08-27T09:11:05.393Z,2.80
2022-08-27T09:12:15.000Z,4.15
2022-08-27T09:13:22.879Z,3.05
2022-08-27T09:14:40.827Z,2.83
2022-08-27T09:15:42.059Z,2.80
2022-08-27T09:16:38.942Z,4.10
2022-08-27T09:17:36.564Z,4.13
2022-08-27T09:18:39.047Z,3.30
2022-08-27T09:19:37.990Z,3.50
2022-08-27T09:20:35.598Z,3.30
2022-08-27T09:21:45.144Z,3.45
2022-08-27T09:23:06.670Z,3.40
2022-08-27T09:24:39.023Z,3.10
2022-08-27T09:25:38.473Z,2.90
2022-08-27T09:26:39.195Z,2.97
2022-08-27T09:27:38.474Z,2.88
2022-08-27T09:28:59.899Z,2.35
2022-08-27T09:29:57.320Z,3.30
2022-08-27T09:30:55.876Z,3.10
2022-08-27T09:32:00.170Z,2.70
2022-08-27T09:33:00.453Z,2.47
2022-08-27T09:33:57.305Z,3.28
2022-08-27T09:34:58.559Z,3.13
2022-08-27T09:35:55.239Z,2.75
2022-08-27T09:37:00.517Z,3.35
2022-08-27T09:37:57.927Z,3.00
2022-08-27T09:38:59.291Z,3.08
2022-08-27T09:40:01.938Z,3.05
2022-08-27T09:41:03.474Z,2.83
2022-08-27T09:42:04.055Z,2.85
2022-08-27T09:43:15.841Z,3.08
2022-08-27T09:44:16.551Z,2.88
2022-08-27T09:45:20.043Z,3.03
2022-08-27T09:46:22.442Z,2.83
2022-08-27T09:47:21.155Z,2.55
2022-08-27T09:48:26.736Z,2.30
2022-08-27T09:49:24.714Z,2.45
2022-08-27T09:50:24.595Z,2.60
2022-08-27T09:51:25.747Z,2.92
2022-08-27T09:52:37.856Z,2.67
2022-08-27T09:53:47.469Z,3.20
2022-08-27T09:54:47.922Z,3.00
2022-08-27T09:55:49.515Z,2.90
2022-08-27T09:56:50.304Z,3.17
2022-08-27T09:57:47.036Z,2.70
2022-08-27T09:58:43.642Z,3.00
2022-08-27T09:59:51.419Z,2.78
2022-08-27T10:00:58.475Z,2.58
2022-08-27T10:02:09.148Z,2.60
2022-08-27T10:03:11.032Z,2.40
2022-08-27T10:04:11.779Z,2.55
2022-08-27T10:05:18.749Z,2.80
2022-08-27T10:06:27.551Z,2.78
2022-08-27T10:07:42.049Z,2.25
2022-08-27T10:08:48.829Z,2.60
2022-08-27T10:09:55.970Z,2.67
2022-08-27T10:11:03.480Z,2.70
2022-08-27T10:12:09.355Z,2.55
2022-08-27T10:13:56.566Z,2.63
2022-08-27T10:14:57.916Z,2.53
2022-08-27T10:16:28.263Z,3.30
2022-08-27T10:17:33.820Z,3.50
2022-08-27T10:18:41.328Z,2.10
2022-08-27T10:20:02.141Z,2.45
2022-08-27T10:21:25.546Z,2.35
2022-08-27T10:22:44.688Z,2.63
2022-08-27T10:24:07.167Z,2.85
2022-08-27T10:25:15.827Z,2.85
2022-08-27T10:26:25.143Z,2.47
2022-08-27T10:27:56.677Z,2.92
2022-08-27T10:29:08.484Z,3.00
2022-08-27T10:30:05.487Z,3.05
2022-08-27T10:31:32.793Z,2.90
2022-08-27T10:32:29.656Z,2.97
2022-08-27T10:33:51.101Z,2.60
2022-08-27T10:35:09.037Z,2.45
2022-08-27T10:36:26.295Z,3.05
2022-08-27T10:38:01.922Z,2.80
2022-08-27T10:39:11.716Z,2.75
2022-08-27T10:40:09.364Z,2.50
2022-08-27T10:41:25.296Z,3.03
2022-08-27T10:42:29.525Z,2.85
2022-08-27T10:43:56.287Z,2.95
2022-08-27T10:45:08.926Z,2.20
2022-08-27T10:46:49.857Z,2.85
2022-08-27T10:48:03.226Z,2.60
2022-08-27T10:49:24.094Z,2.60
2022-08-27T10:50:49.004Z,2.38
2022-08-27T10:51:45.670Z,3.00
2022-08-27T10:52:51.616Z,2.85
2022-08-27T10:54:10.082Z,3.78
2022-08-27T10:55:24.314Z,2.63
2022-08-27T10:57:14.440Z,2.72
2022-08-27T10:58:17.680Z,2.75
2022-08-27T10:59:24.695Z,2.90
2022-08-27T11:00:23.635Z,2.83
2022-08-27T11:01:33.095Z,2.92
2022-08-27T11:02:41.462Z,2.60
2022-08-27T11:03:46.908Z,2.70
2022-08-27T11:04:51.428Z,3.20
2022-08-27T11:05:50.558Z,2.30
2022-08-27T11:06:57.903Z,2.95
2022-08-27T11:08:03.847Z,3.38
2022-08-27T11:09:23.516Z,3.17
2022-08-27T11:10:28.477Z,2.55
2022-08-27T11:12:13.456Z,3.00
2022-08-27T11:13:10.830Z,2.83
2022-08-27T11:14:15.075Z,2.20
2022-08-27T11:15:20.959Z,3.97
2022-08-27T11:16:23.237Z,3.05
2022-08-27T11:17:41.321Z,2.80
2022-08-27T11:18:55.020Z,2.70
2022-08-27T11:19:57.312Z,2.72
2022-08-27T11:21:05.460Z,3.08
2022-08-27T11:22:26.467Z,2.65
2022-08-27T11:23:37.404Z,3.67
2022-08-27T11:24:47.898Z,3.33
2022-08-27T11:25:59.104Z,2.80
2022-08-27T11:27:05.576Z,2.88
2022-08-27T11:28:04.688Z,2.60
2022-08-27T11:29:10.548Z,2.80
2022-08-27T11:30:32.381Z,2.50
2022-08-27T11:31:38.369Z,2.70
2022-08-27T11:33:11.054Z,2.97
2022-08-27T11:34:18.967Z,2.80
2022-08-27T11:35:35.823Z,2.60
2022-08-27T11:36:35.383Z,3.00
2022-08-27T11:37:41.147Z,2.75
2022-08-27T11:38:47.815Z,2.70
2022-08-27T11:40:06.599Z,2.40
2022-08-27T11:41:22.083Z,2.78
2022-08-27T11:42:42.107Z,2.95
2022-08-27T11:43:39.193Z,2.78
2022-08-27T11:44:43.125Z,2.80
2022-08-27T11:45:54.072Z,2.80
2022-08-27T11:46:58.153Z,2.83
2022-08-27T11:47:58.456Z,2.70
2022-08-27T11:49:01.825Z,3.10
2022-08-27T11:50:01.610Z,3.08
2022-08-27T11:51:01.798Z,3.20
2022-08-27T11:52:03.084Z,3.08
2022-08-27T11:53:02.604Z,2.97
2022-08-27T11:54:03.096Z,2.53
2022-08-27T11:55:15.346Z,2.65
2022-08-27T11:56:15.779Z,2.42
2022-08-27T11:57:34.525Z,2.75
2022-08-27T11:58:33.018Z,3.28
2022-08-27T11:59:33.799Z,2.78
2022-08-27T12:00:33.991Z,2.47
2022-08-27T12:01:32.004Z,2.88
2022-08-27T12:02:30.086Z,3.17
2022-08-27T12:03:32.864Z,3.30
2022-08-27T12:04:34.619Z,2.97
2022-08-27T12:05:40.190Z,2.80
2022-08-27T12:06:52.661Z,2.88
2022-08-27T12:07:51.998Z,3.03
2022-08-27T12:08:48.723Z,3.00
2022-08-27T12:09:55.021Z,3.33
2022-08-27T12:11:13.285Z,2.55
2022-08-27T12:12:19.760Z,2.88
2022-08-27T12:13:22.006Z,2.63
2022-08-27T12:14:43.492Z,2.90
2022-08-27T12:16:04.073Z,2.63
2022-08-27T12:17:18.826Z,3.05
2022-08-27T12:18:37.198Z,3.05
2022-08-27T12:20:14.633Z,2.67
2022-08-27T12:21:11.276Z,3.00
2022-08-27T12:22:53.987Z,3.30
2022-08-27T12:24:28.404Z,3.33
2022-08-27T12:25:25.837Z,3.03
2022-08-27T12:26:25.443Z,2.85
2022-08-27T12:27:22.082Z,2.90
2022-08-27T12:28:26.805Z,2.70
2022-08-27T12:29:31.616Z,3.10
2022-08-27T12:30:33.558Z,2.65
2022-08-27T12:31:30.564Z,3.28
2022-08-27T12:32:40.202Z,3.22
2022-08-27T12:33:44.284Z,3.00
2022-08-27T12:34:52.998Z,2.67
2022-08-27T12:35:54.889Z,2.90
2022-08-27T12:36:54.840Z,3.25
2022-08-27T12:38:26.549Z,2.85
2022-08-27T12:39:28.747Z,3.30
2022-08-27T12:40:41.657Z,2.55
2022-08-27T12:43:43.361Z,2.75
2022-08-27T12:44:40.073Z,2.90
2022-08-27T12:45:45.710Z,2.72
2022-08-27T12:47:06.271Z,3.17
2022-08-27T12:48:04.189Z,2.70
2022-08-27T12:49:35.890Z,3.22
2022-08-27T12:50:28.360Z,2.42
2022-08-27T12:51:31.319Z,2.90
2022-08-27T12:52:43.150Z,2.88
2022-08-27T12:53:53.531Z,3.00
2022-08-27T12:55:09.549Z,2.75
2022-08-27T12:56:12.179Z,2.90
2022-08-27T12:57:24.970Z,2.65
2022-08-27T12:59:56.083Z,2.83
2022-08-27T13:01:18.828Z,3.33
2022-08-27T13:02:33.750Z,3.20
2022-08-27T13:03:43.343Z,2.83
2022-08-27T13:04:42.157Z,3.00
2022-08-27T13:05:44.832Z,2.83
2022-08-27T13:06:45.525Z,3.15
2022-08-27T13:07:45.022Z,2.90
2022-08-27T13:08:41.655Z,2.72
2022-08-27T13:09:39.741Z,3.08
2022-08-27T13:10:36.410Z,2.78
2022-08-27T13:11:44.177Z,2.97
2022-08-27T13:12:42.892Z,2.80
2022-08-27T13:13:39.869Z,3.17
2022-08-27T13:14:39.790Z,2.90
2022-08-27T13:15:36.866Z,3.08
2022-08-27T13:16:37.021Z,2.95
2022-08-27T13:17:41.241Z,2.55
2022-08-27T13:18:38.438Z,2.78
2022-08-27T13:19:43.219Z,3.22
2022-08-27T13:20:40.712Z,2.67
2022-08-27T13:21:37.710Z,3.22
2022-08-27T13:22:40.235Z,3.10
2022-08-27T13:23:36.882Z,3.67
2022-08-27T13:24:37.164Z,3.15
2022-08-27T13:25:35.329Z,3.00
2022-08-27T13:26:37.371Z,3.38
2022-08-27T13:27:36.600Z,3.20
2022-08-27T13:28:35.649Z,3.30
2022-08-27T13:29:32.905Z,3.00
2022-08-27T13:30:36.328Z,2.70
2022-08-27T13:31:34.608Z,3.08
2022-08-27T13:32:32.577Z,2.90
2022-08-27T13:33:32.628Z,2.60
2022-08-27T13:34:35.624Z,2.50
2022-08-27T13:35:32.565Z,2.72
2022-08-27T13:36:32.893Z,2.42
2022-08-27T13:37:44.804Z,3.30
2022-08-27T13:38:49.786Z,2.63
2022-08-27T13:39:47.103Z,2.67
2022-08-27T13:40:59.159Z,2.65
2022-08-27T13:42:00.848Z,2.70